sensor_id;sensor_type;location;lat;lon;timestamp;temperature;humidity
7388;DHT22;3735;50.136;11.062;2023-06-14T00:00:51;11.50;99.90
7388;DHT22;3735;50.136;11.062;2023-06-14T00:03:18;11.50;99.90
7388;DHT22;3735;50.136;11.062;2023-06-14T00:05:48;11.40;99.90
7388;DHT22;3735;50.136;11.062;2023-06-14T00:08:14;11.40;99.90
7388;DHT22;3735;50.136;11.062;2023-06-14T00:10:40;11.30;99.90
7388;DHT22;3735;50.136;11.062;2023-06-14T00:13:08;11.30;99.90
7388;DHT22;3735;50.136;11.062;2023-06-14T00:15:34;11.30;99.90
7388;DHT22;3735;50.136;11.062;2023-06-14T00:18:01;11.30;99.90
7388;DHT22;3735;50.136;11.062;2023-06-14T00:20:28;11.30;99.90
7388;DHT22;3735;50.136;11.062;2023-06-14T00:22:56;11.30;99.90
7388;DHT22;3735;50.136;11.062;2023-06-14T00:25:23;11.40;99.90
7388;DHT22;3735;50.136;11.062;2023-06-14T00:27:51;11.40;99.90
7388;DHT22;3735;50.136;11.062;2023-06-14T00:30:17;11.60;99.90
7388;DHT22;3735;50.136;11.062;2023-06-14T00:32:44;11.80;99.90
7388;DHT22;3735;50.136;11.062;2023-06-14T00:35:11;11.90;99.90
7388;DHT22;3735;50.136;11.062;2023-06-14T00:37:37;11.90;99.90
7388;DHT22;3735;50.136;11.062;2023-06-14T00:40:04;11.90;99.90
7388;DHT22;3735;50.136;11.062;2023-06-14T00:42:31;11.90;99.90
7388;DHT22;3735;50.136;11.062;2023-06-14T00:44:57;11.80;99.90
7388;DHT22;3735;50.136;11.062;2023-06-14T00:47:23;11.70;99.90
7388;DHT22;3735;50.136;11.062;2023-06-14T00:49:50;11.60;99.90
7388;DHT22;3735;50.136;11.062;2023-06-14T00:52:17;11.60;99.90
7388;DHT22;3735;50.136;11.062;2023-06-14T00:54:44;11.50;99.90
7388;DHT22;3735;50.136;11.062;2023-06-14T00:57:10;11.50;99.90
7388;DHT22;3735;50.136;11.062;2023-06-14T00:59:47;11.50;99.90
7388;DHT22;3735;50.136;11.062;2023-06-14T01:02:15;11.50;99.90
7388;DHT22;3735;50.136;11.062;2023-06-14T01:04:43;11.40;99.90
7388;DHT22;3735;50.136;11.062;2023-06-14T01:07:51;11.40;99.90
7388;DHT22;3735;50.136;11.062;2023-06-14T01:13:19;11.40;99.90
7388;DHT22;3735;50.136;11.062;2023-06-14T01:15:47;11.40;99.90
7388;DHT22;3735;50.136;11.062;2023-06-14T01:18:14;11.50;99.90
7388;DHT22;3735;50.136;11.062;2023-06-14T01:20:44;11.50;99.90
7388;DHT22;3735;50.136;11.062;2023-06-14T01:23:16;11.60;99.90
7388;DHT22;3735;50.136;11.062;2023-06-14T01:25:42;11.60;99.90
7388;DHT22;3735;50.136;11.062;2023-06-14T01:28:10;11.50;99.90
7388;DHT22;3735;50.136;11.062;2023-06-14T01:30:39;11.60;99.90
7388;DHT22;3735;50.136;11.062;2023-06-14T01:33:18;11.60;99.90
7388;DHT22;3735;50.136;11.062;2023-06-14T01:35:48;11.50;99.90
7388;DHT22;3735;50.136;11.062;2023-06-14T01:38:15;11.50;99.90
7388;DHT22;3735;50.136;11.062;2023-06-14T01:40:45;11.40;99.90
7388;DHT22;3735;50.136;11.062;2023-06-14T01:43:13;11.40;99.90
7388;DHT22;3735;50.136;11.062;2023-06-14T01:45:42;11.40;99.90
7388;DHT22;3735;50.136;11.062;2023-06-14T01:48:09;11.40;99.90
7388;DHT22;3735;50.136;11.062;2023-06-14T01:50:35;11.40;99.90
7388;DHT22;3735;50.136;11.062;2023-06-14T01:53:01;11.30;99.90
7388;DHT22;3735;50.136;11.062;2023-06-14T01:55:27;11.30;99.90
7388;DHT22;3735;50.136;11.062;2023-06-14T01:57:53;11.20;99.90
7388;DHT22;3735;50.136;11.062;2023-06-14T02:00:20;11.20;99.90
7388;DHT22;3735;50.136;11.062;2023-06-14T02:02:47;11.10;99.90
7388;DHT22;3735;50.136;11.062;2023-06-14T02:05:13;11.10;99.90
7388;DHT22;3735;50.136;11.062;2023-06-14T02:07:39;11.10;99.90
7388;DHT22;3735;50.136;11.062;2023-06-14T02:10:05;11.10;99.90
7388;DHT22;3735;50.136;11.062;2023-06-14T02:12:31;11.10;99.90
7388;DHT22;3735;50.136;11.062;2023-06-14T02:14:57;11.00;99.90
7388;DHT22;3735;50.136;11.062;2023-06-14T02:17:23;11.00;99.90
7388;DHT22;3735;50.136;11.062;2023-06-14T02:19:50;10.90;99.90
7388;DHT22;3735;50.136;11.062;2023-06-14T02:22:16;10.90;99.90
7388;DHT22;3735;50.136;11.062;2023-06-14T02:24:42;10.90;99.90
7388;DHT22;3735;50.136;11.062;2023-06-14T02:27:09;10.90;99.90
7388;DHT22;3735;50.136;11.062;2023-06-14T02:29:36;10.90;99.90
7388;DHT22;3735;50.136;11.062;2023-06-14T02:32:02;10.90;99.90
7388;DHT22;3735;50.136;11.062;2023-06-14T02:34:29;10.90;99.90
7388;DHT22;3735;50.136;11.062;2023-06-14T02:36:55;11.00;99.90
7388;DHT22;3735;50.136;11.062;2023-06-14T02:39:21;11.10;99.90
7388;DHT22;3735;50.136;11.062;2023-06-14T02:41:49;11.20;99.90
7388;DHT22;3735;50.136;11.062;2023-06-14T02:44:17;11.20;99.90
7388;DHT22;3735;50.136;11.062;2023-06-14T02:46:43;11.30;99.90
7388;DHT22;3735;50.136;11.062;2023-06-14T02:49:13;11.20;99.90
7388;DHT22;3735;50.136;11.062;2023-06-14T02:51:39;11.20;99.90
7388;DHT22;3735;50.136;11.062;2023-06-14T02:54:05;11.20;99.90
7388;DHT22;3735;50.136;11.062;2023-06-14T02:56:31;11.20;99.90
7388;DHT22;3735;50.136;11.062;2023-06-14T02:58:57;11.20;99.90
7388;DHT22;3735;50.136;11.062;2023-06-14T03:01:28;11.20;99.90
7388;DHT22;3735;50.136;11.062;2023-06-14T03:04:02;11.10;99.90
7388;DHT22;3735;50.136;11.062;2023-06-14T03:06:31;11.00;99.90
7388;DHT22;3735;50.136;11.062;2023-06-14T03:08:58;11.00;99.90
7388;DHT22;3735;50.136;11.062;2023-06-14T03:11:32;11.00;99.90
7388;DHT22;3735;50.136;11.062;2023-06-14T03:13:57;11.00;99.90
7388;DHT22;3735;50.136;11.062;2023-06-14T03:16:23;11.00;99.90
7388;DHT22;3735;50.136;11.062;2023-06-14T03:18:52;11.00;99.90
7388;DHT22;3735;50.136;11.062;2023-06-14T03:21:19;11.00;99.90
7388;DHT22;3735;50.136;11.062;2023-06-14T03:23:48;11.00;99.90
7388;DHT22;3735;50.136;11.062;2023-06-14T03:26:14;11.00;99.90
7388;DHT22;3735;50.136;11.062;2023-06-14T03:28:44;11.00;99.90
7388;DHT22;3735;50.136;11.062;2023-06-14T03:31:11;10.90;99.90
7388;DHT22;3735;50.136;11.062;2023-06-14T03:33:38;10.90;99.90
7388;DHT22;3735;50.136;11.062;2023-06-14T03:36:04;10.90;99.90
7388;DHT22;3735;50.136;11.062;2023-06-14T03:38:31;10.90;99.90
7388;DHT22;3735;50.136;11.062;2023-06-14T03:40:56;10.90;99.90
7388;DHT22;3735;50.136;11.062;2023-06-14T03:43:22;10.90;99.90
7388;DHT22;3735;50.136;11.062;2023-06-14T03:45:48;10.90;99.90
7388;DHT22;3735;50.136;11.062;2023-06-14T03:48:15;10.90;99.90
7388;DHT22;3735;50.136;11.062;2023-06-14T03:50:40;10.90;99.90
7388;DHT22;3735;50.136;11.062;2023-06-14T03:53:08;10.90;99.90
7388;DHT22;3735;50.136;11.062;2023-06-14T03:55:34;10.90;99.90
7388;DHT22;3735;50.136;11.062;2023-06-14T03:58:00;10.90;99.90
7388;DHT22;3735;50.136;11.062;2023-06-14T04:00:26;11.00;99.90
7388;DHT22;3735;50.136;11.062;2023-06-14T04:02:52;11.10;99.90
7388;DHT22;3735;50.136;11.062;2023-06-14T04:05:19;11.10;99.90
7388;DHT22;3735;50.136;11.062;2023-06-14T04:07:46;11.10;99.90
7388;DHT22;3735;50.136;11.062;2023-06-14T04:10:15;11.10;99.90
7388;DHT22;3735;50.136;11.062;2023-06-14T04:12:42;11.10;99.90
7388;DHT22;3735;50.136;11.062;2023-06-14T04:15:08;11.10;99.90
7388;DHT22;3735;50.136;11.062;2023-06-14T04:17:36;11.10;99.90
7388;DHT22;3735;50.136;11.062;2023-06-14T04:20:03;11.10;99.90
7388;DHT22;3735;50.136;11.062;2023-06-14T04:22:31;11.20;99.90
7388;DHT22;3735;50.136;11.062;2023-06-14T04:24:58;11.30;99.90
7388;DHT22;3735;50.136;11.062;2023-06-14T04:27:26;11.40;99.90
7388;DHT22;3735;50.136;11.062;2023-06-14T04:29:53;11.40;99.90
7388;DHT22;3735;50.136;11.062;2023-06-14T04:32:26;11.40;99.90
7388;DHT22;3735;50.136;11.062;2023-06-14T04:34:55;11.50;99.90
7388;DHT22;3735;50.136;11.062;2023-06-14T04:37:22;12.00;99.90
7388;DHT22;3735;50.136;11.062;2023-06-14T04:39:48;12.70;99.90
7388;DHT22;3735;50.136;11.062;2023-06-14T04:42:18;13.70;99.90
7388;DHT22;3735;50.136;11.062;2023-06-14T04:44:46;14.30;99.90
7388;DHT22;3735;50.136;11.062;2023-06-14T04:47:13;14.50;99.90
7388;DHT22;3735;50.136;11.062;2023-06-14T04:49:40;14.50;99.90
7388;DHT22;3735;50.136;11.062;2023-06-14T04:52:07;14.40;99.90
7388;DHT22;3735;50.136;11.062;2023-06-14T04:54:38;14.80;99.90
7388;DHT22;3735;50.136;11.062;2023-06-14T04:57:07;15.70;99.90
7388;DHT22;3735;50.136;11.062;2023-06-14T04:59:34;16.60;99.90
7388;DHT22;3735;50.136;11.062;2023-06-14T05:02:01;17.10;99.90
7388;DHT22;3735;50.136;11.062;2023-06-14T05:04:27;17.40;99.90
7388;DHT22;3735;50.136;11.062;2023-06-14T05:06:54;17.80;99.90
7388;DHT22;3735;50.136;11.062;2023-06-14T05:09:23;18.40;99.90
7388;DHT22;3735;50.136;11.062;2023-06-14T05:11:48;18.80;99.90
7388;DHT22;3735;50.136;11.062;2023-06-14T05:14:16;19.10;99.90
7388;DHT22;3735;50.136;11.062;2023-06-14T05:16:42;19.50;99.90
7388;DHT22;3735;50.136;11.062;2023-06-14T05:19:08;19.80;99.90
7388;DHT22;3735;50.136;11.062;2023-06-14T05:21:36;19.90;99.90
7388;DHT22;3735;50.136;11.062;2023-06-14T05:24:03;20.20;99.90
7388;DHT22;3735;50.136;11.062;2023-06-14T05:26:29;20.40;99.90
7388;DHT22;3735;50.136;11.062;2023-06-14T05:28:58;20.70;99.90
7388;DHT22;3735;50.136;11.062;2023-06-14T05:31:26;20.30;99.90
7388;DHT22;3735;50.136;11.062;2023-06-14T05:33:53;19.60;99.90
7388;DHT22;3735;50.136;11.062;2023-06-14T05:36:20;19.40;99.90
7388;DHT22;3735;50.136;11.062;2023-06-14T05:38:49;19.50;99.90
7388;DHT22;3735;50.136;11.062;2023-06-14T05:41:16;19.50;99.90
7388;DHT22;3735;50.136;11.062;2023-06-14T05:43:42;19.40;99.90
7388;DHT22;3735;50.136;11.062;2023-06-14T05:46:08;19.70;99.90
7388;DHT22;3735;50.136;11.062;2023-06-14T05:48:33;20.10;99.90
7388;DHT22;3735;50.136;11.062;2023-06-14T05:50:59;20.70;99.90
7388;DHT22;3735;50.136;11.062;2023-06-14T05:53:25;21.30;99.90
7388;DHT22;3735;50.136;11.062;2023-06-14T05:55:51;21.90;99.90
7388;DHT22;3735;50.136;11.062;2023-06-14T05:58:19;21.80;99.90
7388;DHT22;3735;50.136;11.062;2023-06-14T06:00:45;21.20;99.90
7388;DHT22;3735;50.136;11.062;2023-06-14T06:03:11;21.20;99.90
7388;DHT22;3735;50.136;11.062;2023-06-14T06:05:38;21.40;99.90
7388;DHT22;3735;50.136;11.062;2023-06-14T06:08:04;21.80;99.90
7388;DHT22;3735;50.136;11.062;2023-06-14T06:10:31;22.30;99.90
7388;DHT22;3735;50.136;11.062;2023-06-14T06:12:56;22.90;99.90
7388;DHT22;3735;50.136;11.062;2023-06-14T06:15:22;23.20;99.90
7388;DHT22;3735;50.136;11.062;2023-06-14T06:17:48;23.20;99.90
7388;DHT22;3735;50.136;11.062;2023-06-14T06:20:14;23.50;99.90
7388;DHT22;3735;50.136;11.062;2023-06-14T06:22:40;23.60;99.90
7388;DHT22;3735;50.136;11.062;2023-06-14T06:25:06;24.10;99.90
7388;DHT22;3735;50.136;11.062;2023-06-14T06:27:32;24.40;99.90
7388;DHT22;3735;50.136;11.062;2023-06-14T06:29:58;24.70;99.90
7388;DHT22;3735;50.136;11.062;2023-06-14T06:32:24;24.60;99.90
7388;DHT22;3735;50.136;11.062;2023-06-14T06:34:50;25.00;99.90
7388;DHT22;3735;50.136;11.062;2023-06-14T06:37:17;25.10;99.90
7388;DHT22;3735;50.136;11.062;2023-06-14T06:39:43;25.10;99.90
7388;DHT22;3735;50.136;11.062;2023-06-14T06:42:09;25.00;99.90
7388;DHT22;3735;50.136;11.062;2023-06-14T06:44:36;25.30;99.90
7388;DHT22;3735;50.136;11.062;2023-06-14T06:47:01;25.40;99.90
7388;DHT22;3735;50.136;11.062;2023-06-14T06:49:27;25.20;99.90
7388;DHT22;3735;50.136;11.062;2023-06-14T06:52:01;25.10;99.90
7388;DHT22;3735;50.136;11.062;2023-06-14T06:54:28;25.40;99.90
7388;DHT22;3735;50.136;11.062;2023-06-14T06:56:54;25.90;99.90
7388;DHT22;3735;50.136;11.062;2023-06-14T06:59:21;26.40;99.90
7388;DHT22;3735;50.136;11.062;2023-06-14T07:01:47;26.60;99.90
7388;DHT22;3735;50.136;11.062;2023-06-14T07:04:13;26.30;99.90
7388;DHT22;3735;50.136;11.062;2023-06-14T07:06:39;26.00;99.90
7388;DHT22;3735;50.136;11.062;2023-06-14T07:09:05;26.10;99.90
7388;DHT22;3735;50.136;11.062;2023-06-14T07:11:33;26.30;99.90
7388;DHT22;3735;50.136;11.062;2023-06-14T07:13:59;26.30;99.90
7388;DHT22;3735;50.136;11.062;2023-06-14T07:16:25;26.10;99.90
7388;DHT22;3735;50.136;11.062;2023-06-14T07:18:51;26.10;99.90
7388;DHT22;3735;50.136;11.062;2023-06-14T07:21:18;26.50;99.90
7388;DHT22;3735;50.136;11.062;2023-06-14T07:23:43;26.50;99.90
7388;DHT22;3735;50.136;11.062;2023-06-14T07:26:09;26.40;99.90
7388;DHT22;3735;50.136;11.062;2023-06-14T07:28:35;26.30;99.90
7388;DHT22;3735;50.136;11.062;2023-06-14T07:31:01;26.20;99.90
7388;DHT22;3735;50.136;11.062;2023-06-14T07:33:28;26.60;99.90
7388;DHT22;3735;50.136;11.062;2023-06-14T07:35:54;26.80;99.90
7388;DHT22;3735;50.136;11.062;2023-06-14T07:38:19;27.10;99.90
7388;DHT22;3735;50.136;11.062;2023-06-14T07:40:46;27.60;99.90
7388;DHT22;3735;50.136;11.062;2023-06-14T07:43:11;27.70;99.90
7388;DHT22;3735;50.136;11.062;2023-06-14T07:45:37;27.80;99.90
7388;DHT22;3735;50.136;11.062;2023-06-14T07:48:03;27.90;99.90
7388;DHT22;3735;50.136;11.062;2023-06-14T07:50:29;28.00;99.90
7388;DHT22;3735;50.136;11.062;2023-06-14T07:52:55;28.20;99.90
7388;DHT22;3735;50.136;11.062;2023-06-14T07:55:21;28.90;99.90
7388;DHT22;3735;50.136;11.062;2023-06-14T07:57:47;28.30;99.90
7388;DHT22;3735;50.136;11.062;2023-06-14T08:00:13;28.60;99.90
7388;DHT22;3735;50.136;11.062;2023-06-14T08:02:44;29.00;99.90
7388;DHT22;3735;50.136;11.062;2023-06-14T08:05:11;29.30;99.90
7388;DHT22;3735;50.136;11.062;2023-06-14T08:07:39;29.70;99.90
7388;DHT22;3735;50.136;11.062;2023-06-14T08:10:06;30.20;99.90
7388;DHT22;3735;50.136;11.062;2023-06-14T08:12:33;30.30;99.90
7388;DHT22;3735;50.136;11.062;2023-06-14T08:14:59;30.20;99.90
7388;DHT22;3735;50.136;11.062;2023-06-14T08:17:25;30.20;99.90
7388;DHT22;3735;50.136;11.062;2023-06-14T08:19:51;30.20;99.90
7388;DHT22;3735;50.136;11.062;2023-06-14T08:22:16;30.00;99.90
7388;DHT22;3735;50.136;11.062;2023-06-14T08:24:43;29.90;99.90
7388;DHT22;3735;50.136;11.062;2023-06-14T08:27:10;30.00;99.90
7388;DHT22;3735;50.136;11.062;2023-06-14T08:29:36;30.10;99.90
7388;DHT22;3735;50.136;11.062;2023-06-14T08:32:04;30.50;99.90
7388;DHT22;3735;50.136;11.062;2023-06-14T08:34:30;30.20;99.90
7388;DHT22;3735;50.136;11.062;2023-06-14T08:36:56;30.20;99.90
7388;DHT22;3735;50.136;11.062;2023-06-14T08:39:21;30.50;99.90
7388;DHT22;3735;50.136;11.062;2023-06-14T08:41:47;30.80;99.90
7388;DHT22;3735;50.136;11.062;2023-06-14T08:44:15;31.00;99.90
7388;DHT22;3735;50.136;11.062;2023-06-14T08:46:42;31.30;99.90
7388;DHT22;3735;50.136;11.062;2023-06-14T08:49:11;31.60;99.90
7388;DHT22;3735;50.136;11.062;2023-06-14T08:51:37;31.60;99.90
7388;DHT22;3735;50.136;11.062;2023-06-14T08:54:05;31.80;99.90
7388;DHT22;3735;50.136;11.062;2023-06-14T08:56:32;31.80;99.90
7388;DHT22;3735;50.136;11.062;2023-06-14T08:59:00;32.10;99.90
7388;DHT22;3735;50.136;11.062;2023-06-14T09:01:33;31.60;99.90
7388;DHT22;3735;50.136;11.062;2023-06-14T09:04:00;31.40;99.90
7388;DHT22;3735;50.136;11.062;2023-06-14T09:06:27;31.10;99.90
7388;DHT22;3735;50.136;11.062;2023-06-14T09:08:55;31.40;99.90
7388;DHT22;3735;50.136;11.062;2023-06-14T09:11:24;31.80;99.90
7388;DHT22;3735;50.136;11.062;2023-06-14T09:13:52;32.30;99.90
7388;DHT22;3735;50.136;11.062;2023-06-14T09:16:18;32.60;99.90
7388;DHT22;3735;50.136;11.062;2023-06-14T09:18:45;32.50;99.90
7388;DHT22;3735;50.136;11.062;2023-06-14T09:21:14;32.70;99.90
7388;DHT22;3735;50.136;11.062;2023-06-14T09:23:45;33.20;99.90
7388;DHT22;3735;50.136;11.062;2023-06-14T09:26:17;33.40;99.90
7388;DHT22;3735;50.136;11.062;2023-06-14T09:28:49;33.50;99.90
7388;DHT22;3735;50.136;11.062;2023-06-14T09:31:17;33.50;99.90
7388;DHT22;3735;50.136;11.062;2023-06-14T09:33:45;33.20;99.90
7388;DHT22;3735;50.136;11.062;2023-06-14T09:36:18;31.80;99.90
7388;DHT22;3735;50.136;11.062;2023-06-14T09:39:00;30.90;99.90
7388;DHT22;3735;50.136;11.062;2023-06-14T09:41:41;30.50;99.90
7388;DHT22;3735;50.136;11.062;2023-06-14T09:44:09;32.00;99.90
7388;DHT22;3735;50.136;11.062;2023-06-14T09:46:37;32.60;99.90
7388;DHT22;3735;50.136;11.062;2023-06-14T09:49:04;33.20;99.90
7388;DHT22;3735;50.136;11.062;2023-06-14T09:51:31;33.70;99.90
7388;DHT22;3735;50.136;11.062;2023-06-14T09:53:59;34.00;99.90
7388;DHT22;3735;50.136;11.062;2023-06-14T09:56:28;34.60;99.90
7388;DHT22;3735;50.136;11.062;2023-06-14T09:58:59;34.60;99.90
7388;DHT22;3735;50.136;11.062;2023-06-14T10:01:30;33.70;99.90
7388;DHT22;3735;50.136;11.062;2023-06-14T10:04:03;33.80;99.90
7388;DHT22;3735;50.136;11.062;2023-06-14T10:06:30;33.70;99.90
7388;DHT22;3735;50.136;11.062;2023-06-14T10:08:58;34.00;99.90
7388;DHT22;3735;50.136;11.062;2023-06-14T10:11:26;34.10;99.90
7388;DHT22;3735;50.136;11.062;2023-06-14T10:13:53;34.40;99.90
7388;DHT22;3735;50.136;11.062;2023-06-14T10:16:25;35.20;99.90
7388;DHT22;3735;50.136;11.062;2023-06-14T10:22:14;35.10;99.90
7388;DHT22;3735;50.136;11.062;2023-06-14T10:24:45;35.20;99.90
7388;DHT22;3735;50.136;11.062;2023-06-14T10:27:16;35.10;99.90
7388;DHT22;3735;50.136;11.062;2023-06-14T10:32:24;31.40;99.90
7388;DHT22;3735;50.136;11.062;2023-06-14T10:34:56;30.80;99.90
7388;DHT22;3735;50.136;11.062;2023-06-14T10:37:24;30.40;99.90
7388;DHT22;3735;50.136;11.062;2023-06-14T10:39:50;29.20;99.90
7388;DHT22;3735;50.136;11.062;2023-06-14T10:42:17;30.20;99.90
7388;DHT22;3735;50.136;11.062;2023-06-14T10:44:53;32.10;99.90
7388;DHT22;3735;50.136;11.062;2023-06-14T10:50:09;34.10;99.90
7388;DHT22;3735;50.136;11.062;2023-06-14T10:52:42;34.60;99.90
7388;DHT22;3735;50.136;11.062;2023-06-14T10:55:14;33.60;99.90
7388;DHT22;3735;50.136;11.062;2023-06-14T10:57:54;32.90;99.90
7388;DHT22;3735;50.136;11.062;2023-06-14T11:00:27;34.00;99.90
7388;DHT22;3735;50.136;11.062;2023-06-14T11:05:52;34.80;99.90
7388;DHT22;3735;50.136;11.062;2023-06-14T11:11:31;35.60;99.90
7388;DHT22;3735;50.136;11.062;2023-06-14T11:14:00;35.10;99.90
7388;DHT22;3735;50.136;11.062;2023-06-14T11:16:27;35.90;99.90
7388;DHT22;3735;50.136;11.062;2023-06-14T11:18:53;35.60;99.90
7388;DHT22;3735;50.136;11.062;2023-06-14T11:21:20;34.70;99.90
7388;DHT22;3735;50.136;11.062;2023-06-14T11:23:53;34.80;99.90
7388;DHT22;3735;50.136;11.062;2023-06-14T11:26:31;34.90;99.90
7388;DHT22;3735;50.136;11.062;2023-06-14T11:29:00;34.60;99.90
7388;DHT22;3735;50.136;11.062;2023-06-14T11:31:29;34.70;99.90
7388;DHT22;3735;50.136;11.062;2023-06-14T11:33:59;35.10;99.90
7388;DHT22;3735;50.136;11.062;2023-06-14T11:36:29;35.10;99.90
7388;DHT22;3735;50.136;11.062;2023-06-14T11:39:03;35.80;99.90
7388;DHT22;3735;50.136;11.062;2023-06-14T11:41:43;36.90;99.90
7388;DHT22;3735;50.136;11.062;2023-06-14T11:44:10;37.10;99.90
7388;DHT22;3735;50.136;11.062;2023-06-14T11:46:37;36.90;99.90
7388;DHT22;3735;50.136;11.062;2023-06-14T11:49:04;35.30;99.90
7388;DHT22;3735;50.136;11.062;2023-06-14T11:51:34;34.40;99.90
7388;DHT22;3735;50.136;11.062;2023-06-14T11:54:05;34.90;99.90
7388;DHT22;3735;50.136;11.062;2023-06-14T11:56:32;34.80;99.90
7388;DHT22;3735;50.136;11.062;2023-06-14T11:58:59;33.60;99.90
7388;DHT22;3735;50.136;11.062;2023-06-14T12:01:25;32.60;99.90
7388;DHT22;3735;50.136;11.062;2023-06-14T12:03:54;32.40;99.90
7388;DHT22;3735;50.136;11.062;2023-06-14T12:06:30;31.30;99.90
7388;DHT22;3735;50.136;11.062;2023-06-14T12:09:05;30.10;99.90
7388;DHT22;3735;50.136;11.062;2023-06-14T12:11:36;31.30;99.90
7388;DHT22;3735;50.136;11.062;2023-06-14T12:14:05;33.00;99.90
7388;DHT22;3735;50.136;11.062;2023-06-14T12:16:38;32.80;99.90
7388;DHT22;3735;50.136;11.062;2023-06-14T12:19:16;31.30;99.90
7388;DHT22;3735;50.136;11.062;2023-06-14T12:21:43;30.70;99.90
7388;DHT22;3735;50.136;11.062;2023-06-14T12:24:13;31.90;99.90
7388;DHT22;3735;50.136;11.062;2023-06-14T12:26:41;33.60;99.90
7388;DHT22;3735;50.136;11.062;2023-06-14T12:29:07;33.10;99.90
7388;DHT22;3735;50.136;11.062;2023-06-14T12:31:33;31.70;99.90
7388;DHT22;3735;50.136;11.062;2023-06-14T12:33:59;30.60;99.90
7388;DHT22;3735;50.136;11.062;2023-06-14T12:36:26;31.40;99.90
7388;DHT22;3735;50.136;11.062;2023-06-14T12:38:52;32.40;99.90
7388;DHT22;3735;50.136;11.062;2023-06-14T12:41:21;32.90;99.90
7388;DHT22;3735;50.136;11.062;2023-06-14T12:43:48;32.50;99.90
7388;DHT22;3735;50.136;11.062;2023-06-14T12:46:14;31.50;99.90
7388;DHT22;3735;50.136;11.062;2023-06-14T12:48:39;30.30;99.90
7388;DHT22;3735;50.136;11.062;2023-06-14T12:51:05;29.20;99.90
7388;DHT22;3735;50.136;11.062;2023-06-14T12:53:31;28.50;99.90
7388;DHT22;3735;50.136;11.062;2023-06-14T12:55:56;28.20;99.90
7388;DHT22;3735;50.136;11.062;2023-06-14T12:58:22;27.70;99.90
7388;DHT22;3735;50.136;11.062;2023-06-14T13:00:49;27.80;99.90
7388;DHT22;3735;50.136;11.062;2023-06-14T13:03:15;27.90;99.90
7388;DHT22;3735;50.136;11.062;2023-06-14T13:05:41;28.00;99.90
7388;DHT22;3735;50.136;11.062;2023-06-14T13:08:08;28.70;99.90
7388;DHT22;3735;50.136;11.062;2023-06-14T13:10:34;29.40;99.90
7388;DHT22;3735;50.136;11.062;2023-06-14T13:13:00;30.60;99.90
7388;DHT22;3735;50.136;11.062;2023-06-14T13:15:26;31.90;99.90
7388;DHT22;3735;50.136;11.062;2023-06-14T13:17:52;33.40;99.90
7388;DHT22;3735;50.136;11.062;2023-06-14T13:20:18;32.90;99.90
7388;DHT22;3735;50.136;11.062;2023-06-14T13:22:45;31.60;99.90
7388;DHT22;3735;50.136;11.062;2023-06-14T13:25:10;30.70;99.90
7388;DHT22;3735;50.136;11.062;2023-06-14T13:27:36;30.20;99.90
7388;DHT22;3735;50.136;11.062;2023-06-14T13:30:03;29.80;99.90
7388;DHT22;3735;50.136;11.062;2023-06-14T13:32:31;29.60;99.90
7388;DHT22;3735;50.136;11.062;2023-06-14T13:34:56;30.40;99.90
7388;DHT22;3735;50.136;11.062;2023-06-14T13:37:23;32.20;99.90
7388;DHT22;3735;50.136;11.062;2023-06-14T13:39:49;32.40;99.90
7388;DHT22;3735;50.136;11.062;2023-06-14T13:42:15;32.20;99.90
7388;DHT22;3735;50.136;11.062;2023-06-14T13:44:40;31.40;99.90
7388;DHT22;3735;50.136;11.062;2023-06-14T13:47:06;31.50;99.90
7388;DHT22;3735;50.136;11.062;2023-06-14T13:49:32;31.50;99.90
7388;DHT22;3735;50.136;11.062;2023-06-14T13:52:00;31.50;99.90
7388;DHT22;3735;50.136;11.062;2023-06-14T13:54:26;31.70;99.90
7388;DHT22;3735;50.136;11.062;2023-06-14T13:56:53;31.70;99.90
7388;DHT22;3735;50.136;11.062;2023-06-14T13:59:19;32.20;99.90
7388;DHT22;3735;50.136;11.062;2023-06-14T14:01:44;32.90;99.90
7388;DHT22;3735;50.136;11.062;2023-06-14T14:04:10;32.60;99.90
7388;DHT22;3735;50.136;11.062;2023-06-14T14:06:36;32.50;99.90
7388;DHT22;3735;50.136;11.062;2023-06-14T14:09:02;32.60;99.90
7388;DHT22;3735;50.136;11.062;2023-06-14T14:11:28;31.70;99.90
7388;DHT22;3735;50.136;11.062;2023-06-14T14:13:58;30.90;99.90
7388;DHT22;3735;50.136;11.062;2023-06-14T14:16:24;31.20;99.90
7388;DHT22;3735;50.136;11.062;2023-06-14T14:18:51;32.00;99.90
7388;DHT22;3735;50.136;11.062;2023-06-14T14:21:16;31.80;99.90
7388;DHT22;3735;50.136;11.062;2023-06-14T14:23:42;31.30;99.90
7388;DHT22;3735;50.136;11.062;2023-06-14T14:26:09;31.70;99.90
7388;DHT22;3735;50.136;11.062;2023-06-14T14:28:35;32.20;99.90
7388;DHT22;3735;50.136;11.062;2023-06-14T14:31:01;32.80;99.90
7388;DHT22;3735;50.136;11.062;2023-06-14T14:33:27;33.50;99.90
7388;DHT22;3735;50.136;11.062;2023-06-14T14:35:52;32.80;99.90
7388;DHT22;3735;50.136;11.062;2023-06-14T14:38:18;31.90;99.90
7388;DHT22;3735;50.136;11.062;2023-06-14T14:40:44;30.70;99.90
7388;DHT22;3735;50.136;11.062;2023-06-14T14:43:10;30.30;99.90
7388;DHT22;3735;50.136;11.062;2023-06-14T14:45:37;31.20;99.90
7388;DHT22;3735;50.136;11.062;2023-06-14T14:48:02;31.90;99.90
7388;DHT22;3735;50.136;11.062;2023-06-14T14:50:29;32.60;99.90
7388;DHT22;3735;50.136;11.062;2023-06-14T14:52:55;32.80;99.90
7388;DHT22;3735;50.136;11.062;2023-06-14T14:55:21;32.70;99.90
7388;DHT22;3735;50.136;11.062;2023-06-14T14:57:47;32.90;99.90
7388;DHT22;3735;50.136;11.062;2023-06-14T15:00:13;33.20;99.90
7388;DHT22;3735;50.136;11.062;2023-06-14T15:02:39;33.60;99.90
7388;DHT22;3735;50.136;11.062;2023-06-14T15:05:06;34.30;99.90
7388;DHT22;3735;50.136;11.062;2023-06-14T15:07:32;34.40;99.90
7388;DHT22;3735;50.136;11.062;2023-06-14T15:09:59;34.10;99.90
7388;DHT22;3735;50.136;11.062;2023-06-14T15:12:25;32.60;99.90
7388;DHT22;3735;50.136;11.062;2023-06-14T15:14:52;30.80;99.90
7388;DHT22;3735;50.136;11.062;2023-06-14T15:17:19;29.40;99.90
7388;DHT22;3735;50.136;11.062;2023-06-14T15:19:46;28.50;99.90
7388;DHT22;3735;50.136;11.062;2023-06-14T15:22:13;27.60;99.90
7388;DHT22;3735;50.136;11.062;2023-06-14T15:24:43;26.90;99.90
7388;DHT22;3735;50.136;11.062;2023-06-14T15:27:11;26.20;99.90
7388;DHT22;3735;50.136;11.062;2023-06-14T15:29:38;25.60;99.90
7388;DHT22;3735;50.136;11.062;2023-06-14T15:32:05;25.30;99.90
7388;DHT22;3735;50.136;11.062;2023-06-14T15:34:32;25.20;99.90
7388;DHT22;3735;50.136;11.062;2023-06-14T15:36:58;25.40;99.90
7388;DHT22;3735;50.136;11.062;2023-06-14T15:39:23;26.10;99.90
7388;DHT22;3735;50.136;11.062;2023-06-14T15:41:50;27.50;99.90
7388;DHT22;3735;50.136;11.062;2023-06-14T15:44:19;28.60;99.90
7388;DHT22;3735;50.136;11.062;2023-06-14T15:46:45;29.10;99.90
7388;DHT22;3735;50.136;11.062;2023-06-14T15:49:12;28.80;99.90
7388;DHT22;3735;50.136;11.062;2023-06-14T15:51:38;28.90;99.90
7388;DHT22;3735;50.136;11.062;2023-06-14T15:54:04;28.70;99.90
7388;DHT22;3735;50.136;11.062;2023-06-14T15:56:30;28.20;99.90
7388;DHT22;3735;50.136;11.062;2023-06-14T15:58:57;27.50;99.90
7388;DHT22;3735;50.136;11.062;2023-06-14T16:01:23;26.70;99.90
7388;DHT22;3735;50.136;11.062;2023-06-14T16:03:50;25.90;99.90